createdAt,value
2022-09-15T00:01:56.990Z,99403.53
2022-09-15T00:04:25.847Z,99389.22
2022-09-15T00:06:56.398Z,99390.19
2022-09-15T00:09:25.265Z,99383.13
2022-09-15T00:11:54.114Z,99391.19
2022-09-15T00:14:23.186Z,99383.13
2022-09-15T00:16:52.204Z,99381.38
2022-09-15T00:19:21.204Z,99386.75
2022-09-15T00:21:50.208Z,99390.44
2022-09-15T00:24:20.435Z,99385.91
2022-09-15T00:26:49.262Z,99385.06
2022-09-15T00:29:18.470Z,99383.22
2022-09-15T00:31:47.341Z,99380.66
2022-09-15T00:34:16.358Z,99379.91
2022-09-15T00:36:45.437Z,99380.78
2022-09-15T00:39:14.882Z,99367.47
2022-09-15T00:41:45.289Z,99362.09
2022-09-15T00:44:53.541Z,99365.72
2022-09-15T00:47:25.600Z,99360.34
2022-09-15T00:50:01.568Z,99356.81
2022-09-15T00:52:40.127Z,99357.78
2022-09-15T00:55:13.676Z,99360.47
2022-09-15T00:57:49.110Z,99365.00
2022-09-15T01:00:20.428Z,99355.19
2022-09-15T01:02:50.481Z,99357.88
2022-09-15T01:05:22.041Z,99362.53
2022-09-15T01:07:55.738Z,99351.91
2022-09-15T01:10:28.653Z,99344.91
2022-09-15T01:13:02.873Z,99346.88
2022-09-15T01:15:49.781Z,99345.38
2022-09-15T01:18:30.189Z,99342.94
2022-09-15T01:21:29.566Z,99342.44
2022-09-15T01:24:40.893Z,99337.53
2022-09-15T01:27:41.187Z,99338.72
2022-09-15T01:30:15.432Z,99333.81
2022-09-15T01:33:10.992Z,99332.41
2022-09-15T01:35:52.730Z,99330.06
2022-09-15T01:38:34.298Z,99321.53
2022-09-15T01:41:08.519Z,99328.09
2022-09-15T01:43:45.065Z,99326.56
2022-09-15T01:46:18.018Z,99328.63
2022-09-15T01:48:48.460Z,99320.81
2022-09-15T01:51:17.926Z,99326.28
2022-09-15T01:53:47.380Z,99326.53
2022-09-15T01:56:16.583Z,99329.31
2022-09-15T01:58:45.566Z,99328.56
2022-09-15T02:01:20.293Z,99326.97
2022-09-15T02:03:55.457Z,99318.16
2022-09-15T02:06:31.735Z,99312.16
2022-09-15T02:09:04.110Z,99309.59
2022-09-15T02:11:36.281Z,99315.19
2022-09-15T02:14:12.854Z,99302.00
2022-09-15T02:16:47.766Z,99304.00
2022-09-15T02:19:21.582Z,99303.38
2022-09-15T02:21:58.372Z,99300.28
2022-09-15T02:24:32.557Z,99304.03
2022-09-15T02:27:04.866Z,99301.66
2022-09-15T02:29:37.311Z,99288.63
2022-09-15T02:32:10.362Z,99299.69
2022-09-15T02:34:42.597Z,99294.63
2022-09-15T02:37:12.686Z,99295.06
2022-09-15T02:39:46.669Z,99292.72
2022-09-15T02:42:25.319Z,99298.41
2022-09-15T02:44:54.449Z,99288.13
2022-09-15T02:47:25.587Z,99290.25
2022-09-15T02:49:54.460Z,99279.84
2022-09-15T02:52:23.614Z,99282.84
2022-09-15T02:54:52.602Z,99274.28
2022-09-15T02:57:21.440Z,99281.78
2022-09-15T03:00:22.547Z,99274.94
2022-09-15T03:02:54.516Z,99285.09
2022-09-15T03:05:25.270Z,99282.66
2022-09-15T03:07:54.740Z,99277.59
2022-09-15T03:10:24.402Z,99276.22
2022-09-15T03:12:55.723Z,99271.06
2022-09-15T03:15:27.035Z,99269.56
2022-09-15T03:17:57.410Z,99271.69
2022-09-15T03:20:28.717Z,99276.22
2022-09-15T03:22:57.925Z,99264.84
2022-09-15T03:25:27.901Z,99261.41
2022-09-15T03:27:56.817Z,99255.19
2022-09-15T03:30:26.348Z,99259.69
2022-09-15T03:32:56.527Z,99251.75
2022-09-15T03:35:25.476Z,99257.97
2022-09-15T03:37:55.181Z,99257.03
2022-09-15T03:40:23.903Z,99261.41
2022-09-15T03:42:53.190Z,99253.38
2022-09-15T03:45:22.243Z,99250.69
2022-09-15T03:47:51.231Z,99249.81
2022-09-15T03:50:21.658Z,99241.72
2022-09-15T03:52:50.670Z,99239.88
2022-09-15T03:55:19.689Z,99230.75
2022-09-15T03:57:48.522Z,99236.69
2022-09-15T04:00:17.600Z,99244.59
2022-09-15T04:02:46.736Z,99237.22
2022-09-15T04:05:15.925Z,99239.56
2022-09-15T04:07:46.305Z,99242.03
2022-09-15T04:10:15.215Z,99239.16
2022-09-15T04:12:44.362Z,99227.34
2022-09-15T04:15:13.406Z,99224.34
2022-09-15T04:17:42.207Z,99226.59
2022-09-15T04:20:11.842Z,99225.41
2022-09-15T04:22:40.909Z,99228.75
2022-09-15T04:25:12.123Z,99226.56
2022-09-15T04:27:41.115Z,99227.00
2022-09-15T04:30:11.111Z,99228.41
2022-09-15T04:32:40.135Z,99223.53
2022-09-15T04:35:09.921Z,99232.13
2022-09-15T04:37:39.129Z,99236.41
2022-09-15T04:40:11.454Z,99238.03
2022-09-15T04:42:40.560Z,99233.41
2022-09-15T04:45:10.678Z,99233.09
2022-09-15T04:47:39.668Z,99230.28
2022-09-15T04:50:09.059Z,99225.66
2022-09-15T04:52:37.948Z,99217.63
2022-09-15T04:55:07.416Z,99214.94
2022-09-15T04:57:37.844Z,99213.94
2022-09-15T05:00:08.655Z,99218.34
2022-09-15T05:02:37.776Z,99216.41
2022-09-15T05:05:07.437Z,99212.78
2022-09-15T05:07:36.265Z,99214.28
2022-09-15T05:10:05.846Z,99219.28
2022-09-15T05:12:35.030Z,99223.56
2022-09-15T05:15:06.035Z,99215.19
2022-09-15T05:17:36.442Z,99214.09
2022-09-15T05:20:06.164Z,99217.09
2022-09-15T05:22:39.537Z,99217.63
2022-09-15T05:25:11.199Z,99211.94
2022-09-15T05:27:40.508Z,99210.72
2022-09-15T05:33:01.511Z,99216.38
2022-09-15T05:35:30.571Z,99212.47
2022-09-15T05:37:59.411Z,99218.25
2022-09-15T05:40:28.570Z,99216.91
2022-09-15T05:42:57.756Z,99217.56
2022-09-15T05:45:27.984Z,99209.25
2022-09-15T05:47:57.439Z,99197.31
2022-09-15T05:50:26.652Z,99183.44
2022-09-15T05:52:55.530Z,99185.66
2022-09-15T05:55:24.846Z,99172.81
2022-09-15T05:57:53.759Z,99177.09
2022-09-15T06:00:22.738Z,99174.16
2022-09-15T06:02:53.363Z,99179.31
2022-09-15T06:05:22.288Z,99183.34
2022-09-15T06:07:53.231Z,99175.06
2022-09-15T06:10:24.991Z,99180.31
2022-09-15T06:12:58.148Z,99180.06
2022-09-15T06:15:27.636Z,99173.50
2022-09-15T06:17:58.467Z,99168.72
2022-09-15T06:20:27.980Z,99164.06
2022-09-15T06:22:57.915Z,99166.41
2022-09-15T06:25:28.701Z,99176.94
2022-09-15T06:27:58.084Z,99177.66
2022-09-15T06:30:27.155Z,99179.13
2022-09-15T06:32:57.366Z,99179.84
2022-09-15T06:35:26.204Z,99179.38
2022-09-15T06:37:55.265Z,99175.44
2022-09-15T06:40:24.457Z,99173.44
2022-09-15T06:42:57.534Z,99174.03
2022-09-15T06:45:27.139Z,99176.44
2022-09-15T06:48:20.227Z,99179.03
2022-09-15T06:50:53.898Z,99176.94
2022-09-15T06:53:23.012Z,99179.41
2022-09-15T06:55:51.879Z,99180.88
2022-09-15T06:58:20.818Z,99184.28
2022-09-15T07:00:50.115Z,99175.00
2022-09-15T07:03:20.809Z,99183.56
2022-09-15T07:05:49.808Z,99178.03
2022-09-15T07:08:18.673Z,99179.38
2022-09-15T07:10:48.448Z,99179.13
2022-09-15T07:13:17.299Z,99178.03
2022-09-15T07:15:52.325Z,99195.50
2022-09-15T07:18:22.868Z,99192.56
2022-09-15T07:20:51.817Z,99198.31
2022-09-15T07:23:21.014Z,99199.75
2022-09-15T07:25:50.033Z,99194.47
2022-09-15T07:28:19.197Z,99205.44
2022-09-15T07:30:52.033Z,99186.59
2022-09-15T07:33:22.469Z,99202.94
2022-09-15T07:35:51.378Z,99206.13
2022-09-15T07:38:20.218Z,99201.94
2022-09-15T07:40:49.377Z,99202.31
2022-09-15T07:43:18.518Z,99200.94
2022-09-15T07:45:47.841Z,99201.50
2022-09-15T07:48:16.921Z,99207.25
2022-09-15T07:50:49.564Z,99199.63
2022-09-15T07:53:19.094Z,99206.34
2022-09-15T07:55:52.563Z,99203.09
2022-09-15T07:58:21.660Z,99215.22
2022-09-15T08:00:50.624Z,99217.38
2022-09-15T08:03:19.560Z,99203.63
2022-09-15T08:05:50.050Z,99214.63
2022-09-15T08:08:19.058Z,99220.47
2022-09-15T08:10:47.936Z,99219.19
2022-09-15T08:13:17.056Z,99226.03
2022-09-15T08:15:46.300Z,99230.22
2022-09-15T08:18:15.688Z,99226.09
2022-09-15T08:20:44.932Z,99225.97
2022-09-15T08:23:15.147Z,99224.13
2022-09-15T08:25:44.290Z,99224.13
2022-09-15T08:28:13.344Z,99220.31
2022-09-15T08:30:42.271Z,99219.31
2022-09-15T08:33:11.156Z,99211.94
2022-09-15T08:35:40.192Z,99213.53
2022-09-15T08:38:09.249Z,99206.28
2022-09-15T08:40:44.490Z,99208.75
2022-09-15T08:43:20.095Z,99211.44
2022-09-15T08:45:54.420Z,99212.97
2022-09-15T08:48:31.045Z,99215.28
2022-09-15T08:51:05.029Z,99209.78
2022-09-15T08:53:38.986Z,99208.63
2022-09-15T08:56:17.117Z,99209.63
2022-09-15T08:58:47.214Z,99208.63
2022-09-15T09:01:30.053Z,99199.56
2022-09-15T09:04:24.412Z,99206.56
2022-09-15T09:07:04.598Z,99210.81
2022-09-15T09:09:42.817Z,99208.56
2022-09-15T09:12:41.114Z,99208.88
2022-09-15T09:15:32.639Z,99202.78
2022-09-15T09:18:18.906Z,99202.25
2022-09-15T09:20:56.520Z,99213.22
2022-09-15T09:23:28.662Z,99212.66
2022-09-15T09:25:58.793Z,99209.69
2022-09-15T09:28:33.491Z,99208.28
2022-09-15T09:31:08.113Z,99204.16
2022-09-15T09:33:47.511Z,99202.63
2022-09-15T09:36:17.299Z,99203.06
2022-09-15T09:38:47.873Z,99190.97
2022-09-15T09:41:19.751Z,99190.25
2022-09-15T09:43:51.254Z,99184.16
2022-09-15T09:46:22.240Z,99190.69
2022-09-15T09:48:57.449Z,99191.88
2022-09-15T09:51:51.931Z,99186.59
2022-09-15T09:54:22.582Z,99191.59
2022-09-15T09:56:52.642Z,99198.41
2022-09-15T09:59:42.274Z,99179.63
2022-09-15T10:02:22.862Z,99193.00
2022-09-15T10:04:53.743Z,99188.47
2022-09-15T10:07:26.699Z,99191.31
2022-09-15T10:09:58.228Z,99187.03
2022-09-15T10:12:32.126Z,99189.03
2022-09-15T10:15:06.407Z,99191.75
2022-09-15T10:17:43.907Z,99191.03
2022-09-15T10:20:32.478Z,99185.91
2022-09-15T10:23:07.331Z,99184.06
2022-09-15T10:26:00.141Z,99170.22
2022-09-15T10:28:28.906Z,99175.38
2022-09-15T10:31:03.455Z,99184.34
2022-09-15T10:33:35.096Z,99165.09
2022-09-15T10:36:07.344Z,99163.97
2022-09-15T10:38:42.256Z,99162.84
2022-09-15T10:41:21.893Z,99164.56
2022-09-15T10:44:10.924Z,99160.41
2022-09-15T10:46:50.379Z,99166.25
2022-09-15T10:49:35.017Z,99168.38
2022-09-15T10:52:15.015Z,99168.50
2022-09-15T10:55:31.843Z,99162.50
2022-09-15T10:58:31.325Z,99167.47
2022-09-15T11:01:17.761Z,99159.91
2022-09-15T11:04:09.310Z,99160.47
2022-09-15T11:06:48.443Z,99161.19
2022-09-15T11:09:25.832Z,99173.84
2022-09-15T11:12:12.054Z,99178.25
2022-09-15T11:14:52.691Z,99175.53
2022-09-15T11:17:43.912Z,99178.72
2022-09-15T11:20:39.587Z,99174.88
2022-09-15T11:23:15.740Z,99186.97
2022-09-15T11:25:48.301Z,99183.56
2022-09-15T11:28:23.762Z,99183.84
2022-09-15T11:31:00.811Z,99196.66
2022-09-15T11:33:35.827Z,99195.25
2022-09-15T11:36:10.820Z,99198.53
2022-09-15T11:38:48.008Z,99208.78
2022-09-15T11:41:25.156Z,99215.47
2022-09-15T11:44:08.623Z,99227.16
2022-09-15T11:46:58.614Z,99235.53
2022-09-15T11:49:32.552Z,99243.94
2022-09-15T11:52:10.037Z,99224.75
2022-09-15T11:54:46.560Z,99211.50
2022-09-15T11:57:21.524Z,99220.03
2022-09-15T11:59:58.984Z,99217.72
2022-09-15T12:02:34.175Z,99219.84
2022-09-15T12:05:11.471Z,99209.19
2022-09-15T12:07:47.906Z,99210.03
2022-09-15T12:10:21.904Z,99215.31
2022-09-15T12:12:52.561Z,99212.47
2022-09-15T12:15:27.377Z,99210.47
2022-09-15T12:18:27.331Z,99210.09
2022-09-15T12:21:04.182Z,99209.50
2022-09-15T12:23:40.702Z,99211.06
2022-09-15T12:26:18.892Z,99222.03
2022-09-15T12:29:02.220Z,99213.06
2022-09-15T12:31:39.943Z,99217.63
2022-09-15T12:34:37.246Z,99216.75
2022-09-15T12:37:14.192Z,99208.94
2022-09-15T12:39:45.746Z,99207.06
2022-09-15T12:42:20.852Z,99211.50
2022-09-15T12:44:55.968Z,99212.06
2022-09-15T12:47:32.863Z,99213.47
2022-09-15T12:50:10.128Z,99215.75
2022-09-15T12:52:49.337Z,99213.50
2022-09-15T12:55:23.909Z,99209.50
2022-09-15T12:57:58.166Z,99205.50
2022-09-15T13:00:36.043Z,99215.75
2022-09-15T13:03:07.916Z,99206.34
2022-09-15T13:05:55.120Z,99194.97
2022-09-15T13:08:53.029Z,99201.81
2022-09-15T13:11:34.608Z,99202.34
2022-09-15T13:14:16.320Z,99209.16
2022-09-15T13:16:53.098Z,99195.22
2022-09-15T13:19:25.633Z,99200.91
2022-09-15T13:22:02.579Z,99205.72
2022-09-15T13:24:45.196Z,99201.72
2022-09-15T13:27:19.628Z,99196.56
2022-09-15T13:29:53.727Z,99193.13
2022-09-15T13:32:39.829Z,99213.19
2022-09-15T13:35:48.185Z,99196.09
2022-09-15T13:38:52.415Z,99206.22
2022-09-15T13:41:40.201Z,99204.28
2022-09-15T13:44:51.977Z,99206.16
2022-09-15T13:47:39.722Z,99206.22
2022-09-15T13:50:15.966Z,99198.28
2022-09-15T13:53:04.185Z,99203.78
2022-09-15T13:55:38.595Z,99210.25
2022-09-15T14:01:07.614Z,99202.75
2022-09-15T14:03:43.415Z,99219.59
2022-09-15T14:06:20.537Z,99201.41
2022-09-15T14:08:54.098Z,99201.22
2022-09-15T14:11:29.815Z,99201.13
2022-09-15T14:14:00.619Z,99201.00
2022-09-15T14:16:36.502Z,99205.75
2022-09-15T14:19:24.836Z,99199.50
2022-09-15T14:21:58.311Z,99193.09
2022-09-15T14:24:30.072Z,99201.81
2022-09-15T14:27:03.465Z,99196.81
2022-09-15T14:29:32.655Z,99187.53
2022-09-15T14:32:04.002Z,99197.66
2022-09-15T14:34:37.253Z,99212.72
2022-09-15T14:37:08.898Z,99200.00
2022-09-15T14:39:40.287Z,99200.06
2022-09-15T14:42:21.805Z,99200.69
2022-09-15T14:47:44.193Z,99202.31
2022-09-15T14:50:17.537Z,99203.34
2022-09-15T14:52:51.266Z,99204.88
2022-09-15T14:55:25.755Z,99210.94
2022-09-15T14:58:00.854Z,99201.38
2022-09-15T15:00:34.931Z,99208.63
2022-09-15T15:03:19.648Z,99210.25
2022-09-15T15:06:02.873Z,99213.59
2022-09-15T15:08:42.118Z,99200.16
2022-09-15T15:11:15.251Z,99209.13
2022-09-15T15:13:47.396Z,99208.53
2022-09-15T15:16:22.274Z,99211.84
2022-09-15T15:18:56.191Z,99205.50
2022-09-15T15:21:43.330Z,99209.72
2022-09-15T15:24:24.154Z,99197.50
2022-09-15T15:26:53.407Z,99198.56
2022-09-15T15:29:43.976Z,99208.38
2022-09-15T15:32:16.106Z,99203.88
2022-09-15T15:34:56.034Z,99204.44
2022-09-15T15:37:30.116Z,99202.25
2022-09-15T15:40:02.203Z,99200.41
2022-09-15T15:42:31.555Z,99200.34
2022-09-15T15:45:05.270Z,99212.31
2022-09-15T15:47:38.171Z,99196.34
2022-09-15T15:50:20.813Z,99208.25
2022-09-15T15:52:51.465Z,99197.22
2022-09-15T15:55:21.693Z,99201.25
2022-09-15T15:57:52.443Z,99207.81
2022-09-15T16:00:24.466Z,99204.16
2022-09-15T16:02:54.724Z,99201.97
2022-09-15T16:05:29.326Z,99211.06
2022-09-15T16:08:01.911Z,99213.72
2022-09-15T16:10:37.761Z,99212.97
2022-09-15T16:13:07.229Z,99215.53
2022-09-15T16:15:36.460Z,99212.88
2022-09-15T16:18:06.189Z,99211.50
2022-09-15T16:20:37.049Z,99216.03
2022-09-15T16:23:06.597Z,99215.00
2022-09-15T16:25:39.904Z,99210.91
2022-09-15T16:28:09.101Z,99211.88
2022-09-15T16:30:38.032Z,99214.47
2022-09-15T16:33:06.808Z,99216.88
2022-09-15T16:35:40.456Z,99221.47
2022-09-15T16:38:10.146Z,99215.56
2022-09-15T16:40:39.493Z,99225.53
2022-09-15T16:43:14.850Z,99215.38
2022-09-15T16:45:45.270Z,99218.38
2022-09-15T16:48:14.602Z,99222.00
2022-09-15T16:51:01.201Z,99225.56
2022-09-15T16:53:34.428Z,99224.72
2022-09-15T16:56:03.770Z,99213.50
2022-09-15T16:58:32.450Z,99219.28
2022-09-15T17:01:01.645Z,99226.50
2022-09-15T17:03:30.866Z,99216.38
2022-09-15T17:06:04.534Z,99215.22
2022-09-15T17:08:34.321Z,99216.59
2022-09-15T17:11:05.181Z,99214.41
2022-09-15T17:13:35.400Z,99206.94
2022-09-15T17:16:04.957Z,99212.41
2022-09-15T17:18:34.048Z,99213.59
2022-09-15T17:21:04.816Z,99211.00
2022-09-15T17:23:37.980Z,99221.84
2022-09-15T17:26:11.512Z,99222.31
2022-09-15T17:28:41.156Z,99214.28
2022-09-15T17:31:15.762Z,99213.63
2022-09-15T17:33:45.308Z,99217.34
2022-09-15T17:36:16.623Z,99211.00
2022-09-15T17:38:46.014Z,99219.81
2022-09-15T17:41:16.306Z,99210.66
2022-09-15T17:43:45.668Z,99213.00
2022-09-15T17:46:15.109Z,99215.50
2022-09-15T17:48:44.177Z,99214.53
2022-09-15T17:51:18.334Z,99222.53
2022-09-15T17:53:47.854Z,99212.50
2022-09-15T17:56:17.446Z,99212.00
2022-09-15T17:58:47.287Z,99222.41
2022-09-15T18:01:16.859Z,99216.78
2022-09-15T18:03:46.890Z,99217.28
2022-09-15T18:06:18.233Z,99214.47
2022-09-15T18:08:47.368Z,99207.88
2022-09-15T18:11:16.830Z,99210.31
2022-09-15T18:13:46.098Z,99218.00
2022-09-15T18:16:15.389Z,99216.63
2022-09-15T18:18:44.886Z,99207.09
2022-09-15T18:21:26.994Z,99211.13
2022-09-15T18:23:56.523Z,99206.25
2022-09-15T18:26:26.845Z,99205.72
2022-09-15T18:28:58.463Z,99202.66
2022-09-15T18:31:27.661Z,99213.88
2022-09-15T18:33:56.902Z,99208.88
2022-09-15T18:36:27.976Z,99208.34
2022-09-15T18:38:57.715Z,99204.31
2022-09-15T18:41:27.898Z,99204.78
2022-09-15T18:43:57.803Z,99204.28
2022-09-15T18:46:26.724Z,99204.63
2022-09-15T18:48:55.624Z,99201.44
2022-09-15T18:51:40.880Z,99208.13
2022-09-15T18:54:15.813Z,99207.72
2022-09-15T18:56:46.500Z,99209.91
2022-09-15T18:59:17.802Z,99198.78
2022-09-15T19:01:48.559Z,99208.13
2022-09-15T19:04:17.805Z,99196.91
2022-09-15T19:06:46.843Z,99193.69
2022-09-15T19:09:17.769Z,99203.03
2022-09-15T19:11:47.835Z,99194.59
2022-09-15T19:14:19.002Z,99200.41
2022-09-15T19:16:57.508Z,99194.63
2022-09-15T19:19:27.986Z,99209.34
2022-09-15T19:21:56.877Z,99204.22
2022-09-15T19:24:33.525Z,99200.13
2022-09-15T19:27:03.906Z,99204.13
2022-09-15T19:29:35.794Z,99208.00
2022-09-15T19:32:06.715Z,99200.41
2022-09-15T19:34:36.608Z,99198.16
2022-09-15T19:37:10.292Z,99188.63
2022-09-15T19:39:43.197Z,99188.22
2022-09-15T19:42:13.003Z,99198.41
2022-09-15T19:44:43.778Z,99192.41
2022-09-15T19:47:13.283Z,99191.88
2022-09-15T19:49:42.254Z,99194.66
2022-09-15T19:52:12.894Z,99194.00
2022-09-15T19:54:43.802Z,99196.69
2022-09-15T19:57:13.516Z,99189.84
2022-09-15T19:59:44.905Z,99185.59
2022-09-15T20:02:14.046Z,99190.06
2022-09-15T20:04:43.304Z,99192.94
2022-09-15T20:07:12.606Z,99189.53
2022-09-15T20:09:43.337Z,99198.53
2022-09-15T20:12:12.272Z,99198.63
2022-09-15T20:14:42.208Z,99201.53
2022-09-15T20:17:11.464Z,99194.56
2022-09-15T20:19:40.346Z,99199.94
2022-09-15T20:22:09.402Z,99206.16
2022-09-15T20:24:38.596Z,99203.47
2022-09-15T20:27:09.164Z,99206.03
2022-09-15T20:29:38.714Z,99205.91
2022-09-15T20:32:08.127Z,99216.44
2022-09-15T20:34:37.032Z,99221.56
2022-09-15T20:37:05.909Z,99236.13
2022-09-15T20:39:35.370Z,99225.00
2022-09-15T20:42:04.389Z,99221.13
2022-09-15T20:44:34.610Z,99215.53
2022-09-15T20:47:04.042Z,99220.47
2022-09-15T20:49:33.009Z,99212.97
2022-09-15T20:52:02.007Z,99207.41
2022-09-15T20:54:31.207Z,99200.94
2022-09-15T20:57:00.267Z,99206.97
2022-09-15T20:59:29.209Z,99206.72
2022-09-15T21:01:59.712Z,99207.59
2022-09-15T21:04:28.667Z,99199.41
2022-09-15T21:06:57.809Z,99199.22
2022-09-15T21:09:27.005Z,99198.22
2022-09-15T21:11:56.033Z,99201.78
2022-09-15T21:14:25.017Z,99201.69
2022-09-15T21:16:54.446Z,99199.75
2022-09-15T21:19:24.684Z,99195.13
2022-09-15T21:21:54.640Z,99198.56
2022-09-15T21:24:23.993Z,99204.66
2022-09-15T21:27:10.774Z,99198.09
2022-09-15T21:29:39.919Z,99194.44
2022-09-15T21:32:09.299Z,99193.59
2022-09-15T21:34:39.356Z,99201.53
2022-09-15T21:37:08.408Z,99202.28
2022-09-15T21:39:37.225Z,99194.22
2022-09-15T21:42:06.671Z,99203.97
2022-09-15T21:44:35.809Z,99200.34
2022-09-15T21:47:04.716Z,99186.91
2022-09-15T21:49:33.681Z,99187.88
2022-09-15T21:52:04.331Z,99187.78
2022-09-15T21:54:33.543Z,99185.19
2022-09-15T21:57:02.495Z,99190.56
2022-09-15T21:59:31.583Z,99193.25
2022-09-15T22:02:00.902Z,99185.19
2022-09-15T22:04:29.795Z,99193.25
2022-09-15T22:06:58.986Z,99181.78
2022-09-15T22:09:29.302Z,99184.44
2022-09-15T22:11:58.137Z,99186.38
2022-09-15T22:14:27.279Z,99191.00
2022-09-15T22:16:56.442Z,99195.53
2022-09-15T22:19:25.752Z,99194.88
2022-09-15T22:21:54.602Z,99191.47
2022-09-15T22:24:23.658Z,99203.50
2022-09-15T22:26:53.845Z,99194.72
2022-09-15T22:29:22.954Z,99202.00
2022-09-15T22:31:51.932Z,99187.00
2022-09-15T22:34:20.885Z,99203.94
2022-09-15T22:36:50.054Z,99201.34
2022-09-15T22:39:18.904Z,99205.13
2022-09-15T22:41:47.913Z,99192.81
2022-09-15T22:44:22.092Z,99192.91
2022-09-15T22:46:51.444Z,99197.50
2022-09-15T22:49:20.334Z,99187.13
2022-09-15T22:51:49.206Z,99186.28
2022-09-15T22:54:18.182Z,99190.66
2022-09-15T22:56:47.681Z,99195.06
2022-09-15T22:59:17.058Z,99186.28
2022-09-15T23:01:48.657Z,99183.50
2022-09-15T23:04:18.158Z,99188.09
2022-09-15T23:06:48.952Z,99179.94
2022-09-15T23:09:18.404Z,99192.28
2022-09-15T23:11:47.301Z,99181.66
2022-09-15T23:14:18.038Z,99189.59
2022-09-15T23:16:48.601Z,99186.91
2022-09-15T23:19:17.728Z,99178.66
2022-09-15T23:21:47.179Z,99184.84
2022-09-15T23:24:17.126Z,99158.91
2022-09-15T23:26:46.311Z,99164.28
2022-09-15T23:29:15.295Z,99166.97
2022-09-15T23:31:44.485Z,99160.66
2022-09-15T23:34:14.709Z,99160.66
2022-09-15T23:36:43.700Z,99171.56
2022-09-15T23:39:12.768Z,99173.38
2022-09-15T23:41:41.935Z,99172.56
2022-09-15T23:44:10.971Z,99177.19
2022-09-15T23:46:40.098Z,99180.06
2022-09-15T23:49:09.320Z,99173.97
2022-09-15T23:51:39.531Z,99176.84
2022-09-15T23:54:08.571Z,99174.41
2022-09-15T23:56:37.408Z,99171.81
2022-09-15T23:59:06.382Z,99175.59
